Time;durP1;ratioP1;P1;durP2;ratioP2;P2;SDS_P1;SDS_P2;PMS_P1;PMS_P2;Temp;Humidity;BMP_temperature;BMP_pressure;BME280_temperature;BME280_humidity;BME280_pressure;Samples;Min_cycle;Max_cycle;Signal;HPM_P1;HPM_P2
2022/09/26 00:02:13;;;;;;;13.88;6.25;;;;;;;9.72;100.00;99961.91;20816193;28;20077;-70
2022/09/26 00:12:14;;;;;;;11.70;5.72;;;;;;;9.62;100.00;99955.13;20814524;28;20045;-69
2022/09/26 00:22:16;;;;;;;11.70;6.70;;;;;;;9.59;100.00;99959.56;20814997;28;20050;-69
2022/09/26 00:32:17;;;;;;;15.82;6.78;;;;;;;9.51;100.00;99951.88;20813835;28;20058;-70
2022/09/26 00:42:18;;;;;;;10.32;6.15;;;;;;;9.48;100.00;99950.16;20813183;28;20302;-70
2022/09/26 00:52:20;;;;;;;12.63;6.63;;;;;;;9.55;100.00;99948.31;20812276;28;20149;-70
2022/09/26 01:02:24;;;;;;;12.70;6.03;;;;;;;9.61;100.00;99942.09;20810801;28;20077;-69
2022/09/26 01:12:27;;;;;;;16.55;6.97;;;;;;;9.60;100.00;99933.41;20810736;28;20056;-69
2022/09/26 01:22:28;;;;;;;15.77;7.03;;;;;;;9.72;100.00;99924.44;20809415;28;20085;-69
2022/09/26 01:32:48;;;;;;;12.27;7.32;;;;;;;9.80;100.00;99927.78;20810286;28;20088;-70
2022/09/26 01:42:49;;;;;;;13.30;7.93;;;;;;;9.80;100.00;99906.84;20809343;28;20073;-70
2022/09/26 01:52:51;;;;;;;13.50;7.45;;;;;;;9.77;100.00;99897.34;20807258;28;20088;-70
2022/09/26 02:02:52;;;;;;;16.25;7.72;;;;;;;9.71;100.00;99883.50;20806449;28;20145;-70
2022/09/26 02:12:53;;;;;;;11.60;7.53;;;;;;;9.59;100.00;99889.88;20806924;28;20496;-70
2022/09/26 02:22:55;;;;;;;14.50;7.28;;;;;;;9.51;100.00;99874.31;20806365;28;20433;-70
2022/09/26 02:32:56;;;;;;;12.60;6.93;;;;;;;9.46;100.00;99862.25;20806934;28;20072;-70
2022/09/26 02:42:57;;;;;;;12.70;7.22;;;;;;;9.38;100.00;99846.72;20807125;28;20198;-72
2022/09/26 02:52:59;;;;;;;13.90;8.07;;;;;;;9.41;100.00;99841.44;20804803;28;21147;-70
2022/09/26 03:03:02;;;;;;;14.27;7.60;;;;;;;9.34;100.00;99829.41;20804325;28;20053;-70
2022/09/26 03:13:03;;;;;;;19.40;8.52;;;;;;;9.29;100.00;99815.53;20806030;28;20083;-69
2022/09/26 03:23:04;;;;;;;12.60;8.00;;;;;;;9.16;100.00;99801.03;20819396;28;20077;-69
2022/09/26 03:33:06;;;;;;;16.83;8.55;;;;;;;9.09;100.00;99792.41;20819487;28;20045;-70
2022/09/26 03:43:07;;;;;;;16.52;7.95;;;;;;;9.01;100.00;99789.13;20817245;28;20092;-69
2022/09/26 03:53:09;;;;;;;15.38;8.40;;;;;;;8.89;100.00;99774.53;20817064;28;20049;-70
2022/09/26 04:03:10;;;;;;;14.55;7.28;;;;;;;8.79;100.00;99752.09;20811341;28;20422;-69
2022/09/26 04:13:11;;;;;;;15.15;7.57;;;;;;;8.68;100.00;99744.47;20816455;28;20537;-69
2022/09/26 04:23:33;;;;;;;17.52;8.68;;;;;;;8.53;100.00;99723.91;20813833;28;20043;-69
2022/09/26 04:33:34;;;;;;;13.50;8.13;;;;;;;8.41;100.00;99721.50;20815553;28;20103;-69
2022/09/26 04:43:35;;;;;;;14.40;8.27;;;;;;;8.31;100.00;99704.25;20814165;28;20060;-69
2022/09/26 04:53:40;;;;;;;12.95;7.22;;;;;;;8.21;100.00;99703.56;20811911;28;20079;-69
2022/09/26 05:03:41;;;;;;;13.95;7.68;;;;;;;8.12;100.00;99693.28;20807936;28;20092;-68
2022/09/26 05:13:43;;;;;;;16.95;8.30;;;;;;;8.12;100.00;99690.69;20812079;28;20057;-69
2022/09/26 05:34:05;;;;;;;16.35;9.25;;;;;;;8.27;100.00;99685.19;20808962;28;20080;-72
2022/09/26 05:44:06;;;;;;;21.95;11.60;;;;;;;8.52;100.00;99674.31;20806140;28;20092;-67
2022/09/26 05:54:07;;;;;;;34.90;13.82;;;;;;;9.06;100.00;99671.53;20806186;28;20076;-67
2022/09/26 06:04:09;;;;;;;30.45;14.25;;;;;;;9.36;100.00;99657.78;20803951;28;20049;-69
2022/09/26 06:14:10;;;;;;;35.22;14.73;;;;;;;9.58;100.00;99663.38;20804142;28;20498;-69
2022/09/26 06:24:12;;;;;;;27.63;14.05;;;;;;;9.85;100.00;99654.00;20803100;28;20084;-69
2022/09/26 06:34:13;;;;;;;27.77;14.13;;;;;;;10.03;100.00;99650.94;20803954;28;20053;-69
2022/09/26 06:44:15;;;;;;;24.02;13.07;;;;;;;10.36;100.00;99635.28;20801656;28;20102;-69
2022/09/26 06:54:16;;;;;;;24.38;13.07;;;;;;;10.49;100.00;99638.41;20815275;28;20489;-69
2022/09/26 07:04:18;;;;;;;21.27;12.07;;;;;;;10.78;100.00;99627.13;20817402;28;20494;-69
2022/09/26 07:14:19;;;;;;;20.73;12.25;;;;;;;11.11;100.00;99630.50;20806830;28;20132;-69
2022/09/26 07:24:20;;;;;;;17.05;11.00;;;;;;;11.02;100.00;99618.56;20783718;28;20108;-69
2022/09/26 07:34:23;;;;;;;17.67;10.90;;;;;;;11.01;100.00;99624.66;20776897;28;20069;-69
2022/09/26 07:44:25;;;;;;;15.70;10.32;;;;;;;11.29;100.00;99598.50;20801564;28;20061;-70
2022/09/26 07:54:46;;;;;;;15.63;9.15;;;;;;;11.42;100.00;99577.16;20813265;28;20041;-69
2022/09/26 08:04:48;;;;;;;14.77;8.32;;;;;;;11.70;100.00;99583.19;20806062;28;20144;-71
2022/09/26 08:14:49;;;;;;;16.23;7.80;;;;;;;12.03;100.00;99570.72;20811601;28;20180;-68
2022/09/26 08:24:50;;;;;;;12.18;7.05;;;;;;;12.38;100.00;99571.22;20810636;28;20084;-69
2022/09/26 08:34:51;;;;;;;10.40;6.25;;;;;;;12.83;100.00;99570.44;20811706;28;20081;-70
2022/09/26 08:44:53;;;;;;;9.73;6.13;;;;;;;13.39;100.00;99562.13;20810732;28;20080;-70
2022/09/26 08:54:54;;;;;;;13.25;6.18;;;;;;;13.32;100.00;99544.91;20810316;28;20057;-70
2022/09/26 09:04:56;;;;;;;9.90;5.03;;;;;;;13.41;100.00;99538.38;20806747;28;20085;-69
2022/09/26 09:14:57;;;;;;;8.52;4.93;;;;;;;13.91;100.00;99532.78;20806262;28;20045;-70
2022/09/26 09:25:19;;;;;;;8.35;4.07;;;;;;;13.75;100.00;99522.03;20805244;28;20043;-70
2022/09/26 09:35:20;;;;;;;9.32;4.30;;;;;;;14.34;100.00;99510.69;20805516;28;20225;-70
2022/09/26 09:45:21;;;;;;;7.55;3.50;;;;;;;14.70;100.00;99499.38;20805322;28;20095;-71
2022/09/26 09:55:22;;;;;;;8.45;3.33;;;;;;;14.44;100.00;99484.78;20805145;28;20111;-71
2022/09/26 10:05:24;;;;;;;8.63;3.05;;;;;;;13.93;100.00;99455.47;20802744;28;20473;-70
2022/09/26 10:15:26;;;;;;;10.48;3.63;;;;;;;13.66;100.00;99459.34;20803221;28;20409;-72
2022/09/26 10:25:27;;;;;;;7.45;4.13;;;;;;;13.67;100.00;99456.63;20815797;28;20064;-72
2022/09/26 10:35:28;;;;;;;6.72;3.45;;;;;;;13.86;100.00;99444.38;20829935;28;20160;-71
2022/09/26 10:45:30;;;;;;;7.38;2.63;;;;;;;14.16;100.00;99422.84;20829110;28;20085;-70
2022/09/26 10:55:31;;;;;;;10.60;3.05;;;;;;;14.27;100.00;99420.56;20829332;28;20080;-70
2022/09/26 11:15:52;;;;;;;4.53;1.73;;;;;;;15.55;100.00;99394.09;20831223;28;20073;-71
2022/09/26 11:25:54;;;;;;;7.57;2.00;;;;;;;15.48;100.00;99372.47;20831005;28;20054;-72
2022/09/26 11:35:58;;;;;;;3.53;1.50;;;;;;;15.63;100.00;99361.13;20823047;28;20152;-71
2022/09/26 11:46:02;;;;;;;4.70;1.85;;;;;;;15.78;100.00;99351.53;20815130;28;20510;-72
2022/09/26 11:56:04;;;;;;;3.78;1.15;;;;;;;15.78;100.00;99330.44;20814449;28;20045;-72
2022/09/26 12:06:06;;;;;;;3.70;1.33;;;;;;;15.75;100.00;99319.19;20814294;28;20479;-71
2022/09/26 12:16:11;;;;;;;2.75;1.38;;;;;;;15.92;100.00;99294.50;20813265;28;20581;-71
2022/09/26 12:26:13;;;;;;;4.57;1.20;;;;;;;15.89;100.00;99274.41;20813652;28;20049;-71
2022/09/26 12:36:17;;;;;;;4.28;1.05;;;;;;;15.68;100.00;99249.22;20813281;28;20045;-72
2022/09/26 12:46:19;;;;;;;;;;;;;;;15.70;100.00;99256.09;20812443;28;20102;-72
2022/09/26 12:56:21;;;;;;;4.93;1.08;;;;;;;15.88;100.00;99251.59;20811127;28;20297;-73
2022/09/26 13:06:24;;;;;;;3.58;1.20;;;;;;;15.89;100.00;99232.16;20810205;28;20054;-68
2022/09/26 13:16:25;;;;;;;4.38;1.67;;;;;;;14.99;100.00;99218.59;20808639;28;20065;-71
2022/09/26 13:26:27;;;;;;;5.25;1.80;;;;;;;14.75;100.00;99212.81;20809015;28;20119;-73
2022/09/26 13:36:30;;;;;;;6.30;2.40;;;;;;;14.70;100.00;99196.38;20808992;28;20057;-70
2022/09/26 13:46:32;;;;;;;4.82;1.95;;;;;;;14.41;100.00;99179.41;20807771;28;20068;-70
2022/09/26 13:56:33;;;;;;;5.47;1.80;;;;;;;14.46;100.00;99188.78;20806948;28;20564;-70
2022/09/26 14:06:35;;;;;;;4.57;1.50;;;;;;;13.86;100.00;99172.50;20801720;28;20128;-70
2022/09/26 14:16:36;;;;;;;8.13;1.80;;;;;;;13.64;100.00;99166.56;20804956;28;20351;-70
2022/09/26 14:26:38;;;;;;;6.32;1.88;;;;;;;13.27;100.00;99153.41;20803703;28;20091;-74
2022/09/26 14:36:39;;;;;;;9.05;2.33;;;;;;;13.43;100.00;99148.25;20803885;28;20092;-69
2022/09/26 14:46:40;;;;;;;3.55;1.35;;;;;;;13.46;100.00;99132.34;20801341;28;20145;-70
2022/09/26 14:56:42;;;;;;;3.08;1.38;;;;;;;13.78;100.00;99111.50;20802316;28;20111;-70
2022/09/26 15:06:43;;;;;;;3.88;1.48;;;;;;;14.15;100.00;99100.00;20802771;28;20132;-70
2022/09/26 15:16:46;;;;;;;3.75;1.50;;;;;;;14.58;100.00;99088.09;20817664;28;20057;-70
2022/09/26 15:26:47;;;;;;;5.20;1.50;;;;;;;14.51;100.00;99060.38;20818205;28;20088;-70
2022/09/26 15:36:49;;;;;;;4.15;1.40;;;;;;;14.68;100.00;99048.94;20817504;28;20081;-69
2022/09/26 15:46:50;;;;;;;2.55;1.20;;;;;;;14.51;100.00;99022.66;20815483;28;20057;-69
2022/09/26 15:56:52;;;;;;;3.90;1.00;;;;;;;14.23;100.00;99010.06;20816152;28;20084;-70
2022/09/26 16:06:53;;;;;;;3.60;1.15;;;;;;;14.19;100.00;99021.72;20812020;28;20188;-69
2022/09/26 16:16:54;;;;;;;4.85;1.60;;;;;;;14.24;100.00;99004.75;20812192;28;20077;-70
2022/09/26 16:26:56;;;;;;;3.17;1.38;;;;;;;14.17;100.00;98991.97;20810589;28;20123;-69
2022/09/26 16:36:57;;;;;;;6.50;1.70;;;;;;;13.91;100.00;98981.03;20810685;28;20053;-69
2022/09/26 16:47:01;;;;;;;5.38;1.70;;;;;;;13.89;100.00;98972.34;20810649;28;20068;-71
2022/09/26 16:57:02;;;;;;;5.28;2.10;;;;;;;13.75;100.00;98964.31;20808554;28;20156;-71
2022/09/26 17:07:04;;;;;;;9.30;5.57;;;;;;;13.64;100.00;98948.25;20804372;28;20073;-70
2022/09/26 17:17:10;;;;;;;6.10;1.75;;;;;;;13.61;100.00;98928.25;20807511;28;20057;-70
2022/09/26 17:27:12;;;;;;;6.63;2.50;;;;;;;13.50;100.00;98918.25;20807943;28;20049;-71
2022/09/26 17:37:14;;;;;;;7.70;2.20;;;;;;;13.46;100.00;98900.97;20804801;28;20083;-71
2022/09/26 17:47:17;;;;;;;5.85;1.95;;;;;;;13.54;100.00;98892.66;20805589;28;20076;-71
2022/09/26 17:57:24;;;;;;;8.32;2.30;;;;;;;13.54;100.00;98872.47;20804767;28;20088;-70
2022/09/26 18:07:25;;;;;;;8.95;2.08;;;;;;;13.54;100.00;98876.88;20803362;28;20541;-71
2022/09/26 18:17:27;;;;;;;5.15;2.00;;;;;;;13.68;100.00;98884.06;20804219;28;20561;-71
2022/09/26 18:27:28;;;;;;;9.40;3.05;;;;;;;13.49;100.00;98913.94;20804244;28;20056;-70
2022/09/26 18:37:31;;;;;;;4.80;2.10;;;;;;;12.77;100.00;98917.50;20802766;28;20089;-70
2022/09/26 18:47:33;;;;;;;7.95;2.40;;;;;;;12.33;100.00;98896.00;20813944;28;20507;-70
2022/09/26 19:07:54;;;;;;;6.82;2.15;;;;;;;12.24;100.00;98884.13;20815715;28;20081;-69
2022/09/26 19:17:55;;;;;;;8.50;3.30;;;;;;;12.07;100.00;98890.19;20816067;28;20084;-69
2022/09/26 19:27:58;;;;;;;7.03;2.58;;;;;;;12.09;100.00;98892.72;20817096;28;20079;-70
2022/09/26 19:37:59;;;;;;;3.67;1.90;;;;;;;11.99;100.00;98892.31;20814948;28;20057;-70
2022/09/26 19:48:01;;;;;;;7.18;2.35;;;;;;;11.84;100.00;98892.16;20815454;28;20069;-70
2022/09/26 19:58:03;;;;;;;5.15;1.80;;;;;;;11.63;100.00;98878.19;20812601;28;20099;-70
2022/09/26 20:08:07;;;;;;;5.75;2.13;;;;;;;11.57;100.00;98838.22;20811658;28;20593;-69
2022/09/26 20:18:08;;;;;;;6.07;2.00;;;;;;;11.47;100.00;98857.03;20813156;28;20077;-71
2022/09/26 20:28:09;;;;;;;5.50;1.50;;;;;;;11.42;100.00;98844.13;20812549;28;20061;-71
2022/09/26 20:38:12;;;;;;;4.10;1.23;;;;;;;11.18;100.00;98819.00;20809105;28;20053;-69
2022/09/26 20:48:13;;;;;;;4.32;1.35;;;;;;;11.09;100.00;98803.69;20809480;28;20444;-70
2022/09/26 20:58:14;;;;;;;4.65;1.70;;;;;;;11.11;100.00;98796.59;20807632;28;20065;-69
2022/09/26 21:08:16;;;;;;;5.45;1.45;;;;;;;11.03;100.00;98779.47;20807260;28;20073;-71
2022/09/26 21:18:17;;;;;;;3.00;1.17;;;;;;;11.01;100.00;98768.19;20807403;28;20405;-71
2022/09/26 21:28:19;;;;;;;6.18;1.60;;;;;;;10.98;100.00;98773.59;20807739;28;20058;-70
2022/09/26 21:38:20;;;;;;;4.30;1.20;;;;;;;10.84;100.00;98760.25;20805247;28;20483;-70
2022/09/26 21:48:21;;;;;;;5.63;1.63;;;;;;;10.81;100.00;98757.75;20805042;28;20544;-70
2022/09/26 21:58:23;;;;;;;2.80;1.33;;;;;;;10.77;100.00;98750.94;20803513;28;20140;-70
2022/09/26 22:08:24;;;;;;;3.47;1.10;;;;;;;10.56;100.00;98731.75;20826282;22;20077;-75
2022/09/26 22:18:25;;;;;;;2.88;1.20;;;;;;;10.53;100.00;98719.66;20813087;28;20560;-76
2022/09/26 22:28:26;;;;;;;4.75;1.50;;;;;;;10.60;100.00;98693.25;20813574;28;20128;-76
2022/09/26 22:38:28;;;;;;;3.47;1.30;;;;;;;10.50;100.00;98677.09;20811878;28;20076;-76
2022/09/26 22:48:29;;;;;;;2.83;1.13;;;;;;;10.44;100.00;98659.00;20795336;28;20053;-74
2022/09/26 22:58:30;;;;;;;4.65;1.20;;;;;;;10.35;100.00;98652.44;20794326;28;20060;-76
2022/09/26 23:08:32;;;;;;;4.68;1.40;;;;;;;10.45;100.00;98650.25;20790844;28;20710;-76
2022/09/26 23:18:33;;;;;;;4.07;1.33;;;;;;;10.27;100.00;98625.75;20810913;28;20051;-76
2022/09/26 23:28:35;;;;;;;3.50;1.30;;;;;;;10.33;100.00;98624.63;20795095;28;20052;-76
2022/09/26 23:38:36;;;;;;;4.10;1.40;;;;;;;10.25;100.00;98617.09;20807809;28;20061;-76
2022/09/26 23:48:38;;;;;;;4.90;2.10;;;;;;;10.30;100.00;98599.47;20823180;28;20056;-76
2022/09/26 23:58:39;;;;;;;4.50;1.80;;;;;;;10.33;100.00;98594.06;20823373;28;20080;-76
